sensor_id;sensor_type;location;lat;lon;timestamp;P1;durP1;ratioP1;P2;durP2;ratioP2
72951;SDS011;61102;51.956;5.878;2022-10-13T00:00:58;6.18;;;1.58;;
72951;SDS011;61102;51.956;5.878;2022-10-13T00:03:25;5.50;;;1.52;;
72951;SDS011;61102;51.956;5.878;2022-10-13T00:05:51;5.70;;;1.83;;
72951;SDS011;61102;51.956;5.878;2022-10-13T00:08:19;6.80;;;2.03;;
72951;SDS011;61102;51.956;5.878;2022-10-13T00:10:47;7.15;;;2.13;;
72951;SDS011;61102;51.956;5.878;2022-10-13T00:13:18;7.47;;;1.80;;
72951;SDS011;61102;51.956;5.878;2022-10-13T00:15:45;6.85;;;2.08;;
72951;SDS011;61102;51.956;5.878;2022-10-13T00:18:13;7.75;;;2.15;;
72951;SDS011;61102;51.956;5.878;2022-10-13T00:20:48;7.15;;;1.90;;
72951;SDS011;61102;51.956;5.878;2022-10-13T00:23:15;6.28;;;1.85;;
72951;SDS011;61102;51.956;5.878;2022-10-13T00:25:42;7.70;;;2.00;;
72951;SDS011;61102;51.956;5.878;2022-10-13T00:28:10;7.60;;;2.20;;
72951;SDS011;61102;51.956;5.878;2022-10-13T00:30:36;6.20;;;2.25;;
72951;SDS011;61102;51.956;5.878;2022-10-13T00:33:03;7.47;;;2.40;;
72951;SDS011;61102;51.956;5.878;2022-10-13T00:35:30;6.40;;;1.88;;
72951;SDS011;61102;51.956;5.878;2022-10-13T00:37:56;7.07;;;1.70;;
72951;SDS011;61102;51.956;5.878;2022-10-13T00:40:22;4.90;;;1.20;;
72951;SDS011;61102;51.956;5.878;2022-10-13T00:42:48;8.02;;;2.25;;
72951;SDS011;61102;51.956;5.878;2022-10-13T00:45:25;6.60;;;2.17;;
72951;SDS011;61102;51.956;5.878;2022-10-13T00:47:53;6.10;;;1.25;;
72951;SDS011;61102;51.956;5.878;2022-10-13T00:50:23;6.25;;;1.60;;
72951;SDS011;61102;51.956;5.878;2022-10-13T00:52:55;4.75;;;1.60;;
72951;SDS011;61102;51.956;5.878;2022-10-13T00:55:25;4.32;;;1.35;;
72951;SDS011;61102;51.956;5.878;2022-10-13T00:57:59;5.43;;;1.48;;
72951;SDS011;61102;51.956;5.878;2022-10-13T01:00:31;5.35;;;1.70;;
72951;SDS011;61102;51.956;5.878;2022-10-13T01:02:59;5.28;;;1.58;;
72951;SDS011;61102;51.956;5.878;2022-10-13T01:05:27;8.80;;;1.70;;
72951;SDS011;61102;51.956;5.878;2022-10-13T01:07:55;6.47;;;2.17;;
72951;SDS011;61102;51.956;5.878;2022-10-13T01:10:40;7.30;;;1.98;;
72951;SDS011;61102;51.956;5.878;2022-10-13T01:21:54;6.57;;;2.05;;
72951;SDS011;61102;51.956;5.878;2022-10-13T01:24:42;5.00;;;1.42;;
72951;SDS011;61102;51.956;5.878;2022-10-13T01:27:12;5.90;;;1.80;;
72951;SDS011;61102;51.956;5.878;2022-10-13T01:30:07;8.68;;;2.55;;
72951;SDS011;61102;51.956;5.878;2022-10-13T01:32:52;5.93;;;1.77;;
72951;SDS011;61102;51.956;5.878;2022-10-13T01:35:32;6.45;;;2.10;;
72951;SDS011;61102;51.956;5.878;2022-10-13T01:38:11;4.93;;;1.67;;
72951;SDS011;61102;51.956;5.878;2022-10-13T01:40:41;6.63;;;1.58;;
72951;SDS011;61102;51.956;5.878;2022-10-13T01:43:17;5.05;;;1.48;;
72951;SDS011;61102;51.956;5.878;2022-10-13T01:46:00;6.45;;;1.95;;
72951;SDS011;61102;51.956;5.878;2022-10-13T01:48:35;7.40;;;1.95;;
72951;SDS011;61102;51.956;5.878;2022-10-13T01:51:04;7.13;;;2.03;;
72951;SDS011;61102;51.956;5.878;2022-10-13T01:53:34;8.52;;;2.08;;
72951;SDS011;61102;51.956;5.878;2022-10-13T01:56:01;7.22;;;2.40;;
72951;SDS011;61102;51.956;5.878;2022-10-13T01:58:29;6.00;;;1.83;;
72951;SDS011;61102;51.956;5.878;2022-10-13T02:01:11;5.88;;;2.17;;
72951;SDS011;61102;51.956;5.878;2022-10-13T02:03:50;5.78;;;1.90;;
72951;SDS011;61102;51.956;5.878;2022-10-13T02:09:26;6.00;;;2.28;;
72951;SDS011;61102;51.956;5.878;2022-10-13T02:18:06;6.22;;;1.60;;
72951;SDS011;61102;51.956;5.878;2022-10-13T02:23:02;5.10;;;1.63;;
72951;SDS011;61102;51.956;5.878;2022-10-13T02:25:32;5.72;;;1.70;;
72951;SDS011;61102;51.956;5.878;2022-10-13T02:28:00;4.60;;;1.50;;
72951;SDS011;61102;51.956;5.878;2022-10-13T02:30:31;5.72;;;1.92;;
72951;SDS011;61102;51.956;5.878;2022-10-13T02:32:58;7.05;;;2.33;;
72951;SDS011;61102;51.956;5.878;2022-10-13T02:35:25;7.15;;;2.13;;
72951;SDS011;61102;51.956;5.878;2022-10-13T02:37:55;6.63;;;2.15;;
72951;SDS011;61102;51.956;5.878;2022-10-13T02:40:21;6.10;;;1.95;;
72951;SDS011;61102;51.956;5.878;2022-10-13T02:42:47;5.50;;;1.90;;
72951;SDS011;61102;51.956;5.878;2022-10-13T02:45:13;6.03;;;2.03;;
72951;SDS011;61102;51.956;5.878;2022-10-13T02:47:39;5.28;;;1.70;;
72951;SDS011;61102;51.956;5.878;2022-10-13T02:50:07;7.03;;;1.83;;
72951;SDS011;61102;51.956;5.878;2022-10-13T02:52:33;6.97;;;1.75;;
72951;SDS011;61102;51.956;5.878;2022-10-13T02:55:00;6.18;;;1.77;;
72951;SDS011;61102;51.956;5.878;2022-10-13T02:57:26;6.78;;;1.98;;
72951;SDS011;61102;51.956;5.878;2022-10-13T02:59:52;5.47;;;1.80;;
72951;SDS011;61102;51.956;5.878;2022-10-13T03:02:19;4.82;;;1.67;;
72951;SDS011;61102;51.956;5.878;2022-10-13T03:04:46;6.45;;;2.17;;
72951;SDS011;61102;51.956;5.878;2022-10-13T03:09:38;8.00;;;1.98;;
72951;SDS011;61102;51.956;5.878;2022-10-13T03:12:05;6.72;;;2.05;;
72951;SDS011;61102;51.956;5.878;2022-10-13T03:14:33;7.03;;;1.83;;
72951;SDS011;61102;51.956;5.878;2022-10-13T03:16:59;6.43;;;1.70;;
72951;SDS011;61102;51.956;5.878;2022-10-13T03:19:26;8.07;;;2.22;;
72951;SDS011;61102;51.956;5.878;2022-10-13T03:21:52;6.72;;;2.13;;
72951;SDS011;61102;51.956;5.878;2022-10-13T03:24:18;6.38;;;2.00;;
72951;SDS011;61102;51.956;5.878;2022-10-13T03:26:44;8.35;;;2.13;;
72951;SDS011;61102;51.956;5.878;2022-10-13T03:29:14;7.82;;;2.25;;
72951;SDS011;61102;51.956;5.878;2022-10-13T03:31:41;6.38;;;1.90;;
72951;SDS011;61102;51.956;5.878;2022-10-13T03:34:08;8.75;;;2.00;;
72951;SDS011;61102;51.956;5.878;2022-10-13T03:36:35;6.30;;;1.80;;
72951;SDS011;61102;51.956;5.878;2022-10-13T03:39:02;9.57;;;1.98;;
72951;SDS011;61102;51.956;5.878;2022-10-13T03:41:28;5.18;;;1.60;;
72951;SDS011;61102;51.956;5.878;2022-10-13T03:43:54;7.32;;;2.00;;
72951;SDS011;61102;51.956;5.878;2022-10-13T03:46:20;9.70;;;2.67;;
72951;SDS011;61102;51.956;5.878;2022-10-13T03:48:49;6.50;;;2.05;;
72951;SDS011;61102;51.956;5.878;2022-10-13T03:51:16;6.93;;;2.30;;
72951;SDS011;61102;51.956;5.878;2022-10-13T03:53:45;6.80;;;1.90;;
72951;SDS011;61102;51.956;5.878;2022-10-13T03:56:14;7.53;;;2.42;;
72951;SDS011;61102;51.956;5.878;2022-10-13T03:58:49;7.22;;;2.35;;
72951;SDS011;61102;51.956;5.878;2022-10-13T04:01:19;7.05;;;1.85;;
72951;SDS011;61102;51.956;5.878;2022-10-13T04:03:47;8.98;;;2.30;;
72951;SDS011;61102;51.956;5.878;2022-10-13T04:06:14;6.47;;;2.15;;
72951;SDS011;61102;51.956;5.878;2022-10-13T04:08:41;6.10;;;2.10;;
72951;SDS011;61102;51.956;5.878;2022-10-13T04:11:07;6.60;;;2.22;;
72951;SDS011;61102;51.956;5.878;2022-10-13T04:13:39;7.97;;;2.70;;
72951;SDS011;61102;51.956;5.878;2022-10-13T04:16:13;7.30;;;2.30;;
72951;SDS011;61102;51.956;5.878;2022-10-13T04:18:41;6.63;;;1.90;;
72951;SDS011;61102;51.956;5.878;2022-10-13T04:21:08;6.72;;;2.00;;
72951;SDS011;61102;51.956;5.878;2022-10-13T04:23:36;7.93;;;2.15;;
72951;SDS011;61102;51.956;5.878;2022-10-13T04:26:04;7.10;;;2.33;;
72951;SDS011;61102;51.956;5.878;2022-10-13T04:28:31;9.68;;;2.70;;
72951;SDS011;61102;51.956;5.878;2022-10-13T04:31:03;8.23;;;2.42;;
72951;SDS011;61102;51.956;5.878;2022-10-13T04:33:29;8.90;;;2.17;;
72951;SDS011;61102;51.956;5.878;2022-10-13T04:35:56;6.90;;;2.17;;
72951;SDS011;61102;51.956;5.878;2022-10-13T04:38:22;6.35;;;1.88;;
72951;SDS011;61102;51.956;5.878;2022-10-13T04:40:49;6.82;;;2.33;;
72951;SDS011;61102;51.956;5.878;2022-10-13T04:43:15;5.95;;;1.95;;
72951;SDS011;61102;51.956;5.878;2022-10-13T04:45:41;7.22;;;1.88;;
72951;SDS011;61102;51.956;5.878;2022-10-13T04:48:08;6.55;;;2.20;;
72951;SDS011;61102;51.956;5.878;2022-10-13T04:50:34;8.48;;;2.05;;
72951;SDS011;61102;51.956;5.878;2022-10-13T04:53:00;7.50;;;2.08;;
72951;SDS011;61102;51.956;5.878;2022-10-13T04:55:26;10.88;;;2.38;;
72951;SDS011;61102;51.956;5.878;2022-10-13T04:57:53;5.50;;;1.90;;
72951;SDS011;61102;51.956;5.878;2022-10-13T05:00:19;6.55;;;1.92;;
72951;SDS011;61102;51.956;5.878;2022-10-13T05:02:45;5.50;;;1.92;;
72951;SDS011;61102;51.956;5.878;2022-10-13T05:05:11;5.95;;;1.60;;
72951;SDS011;61102;51.956;5.878;2022-10-13T05:07:37;7.90;;;2.35;;
72951;SDS011;61102;51.956;5.878;2022-10-13T05:10:04;7.22;;;2.08;;
72951;SDS011;61102;51.956;5.878;2022-10-13T05:12:30;8.65;;;3.15;;
72951;SDS011;61102;51.956;5.878;2022-10-13T05:14:56;7.90;;;2.45;;
72951;SDS011;61102;51.956;5.878;2022-10-13T05:17:23;6.55;;;1.85;;
72951;SDS011;61102;51.956;5.878;2022-10-13T05:19:49;5.75;;;1.77;;
72951;SDS011;61102;51.956;5.878;2022-10-13T05:22:15;6.63;;;2.05;;
72951;SDS011;61102;51.956;5.878;2022-10-13T05:24:42;7.22;;;1.95;;
72951;SDS011;61102;51.956;5.878;2022-10-13T05:27:09;8.13;;;2.40;;
72951;SDS011;61102;51.956;5.878;2022-10-13T05:29:37;7.80;;;2.83;;
72951;SDS011;61102;51.956;5.878;2022-10-13T05:32:04;8.40;;;2.30;;
72951;SDS011;61102;51.956;5.878;2022-10-13T05:34:30;7.38;;;2.58;;
72951;SDS011;61102;51.956;5.878;2022-10-13T05:36:57;7.47;;;2.20;;
72951;SDS011;61102;51.956;5.878;2022-10-13T05:41:50;5.90;;;2.13;;
72951;SDS011;61102;51.956;5.878;2022-10-13T05:44:20;6.20;;;1.92;;
72951;SDS011;61102;51.956;5.878;2022-10-13T05:46:52;7.22;;;2.08;;
72951;SDS011;61102;51.956;5.878;2022-10-13T05:49:18;6.75;;;2.30;;
72951;SDS011;61102;51.956;5.878;2022-10-13T05:51:46;5.78;;;2.08;;
72951;SDS011;61102;51.956;5.878;2022-10-13T05:54:20;6.25;;;2.05;;
72951;SDS011;61102;51.956;5.878;2022-10-13T05:56:50;8.35;;;2.13;;
72951;SDS011;61102;51.956;5.878;2022-10-13T05:59:20;7.65;;;2.22;;
72951;SDS011;61102;51.956;5.878;2022-10-13T06:01:49;6.75;;;2.20;;
72951;SDS011;61102;51.956;5.878;2022-10-13T06:04:18;8.18;;;1.85;;
72951;SDS011;61102;51.956;5.878;2022-10-13T06:06:47;8.45;;;2.35;;
72951;SDS011;61102;51.956;5.878;2022-10-13T06:09:14;6.95;;;2.20;;
72951;SDS011;61102;51.956;5.878;2022-10-13T06:11:42;6.43;;;2.10;;
72951;SDS011;61102;51.956;5.878;2022-10-13T06:14:08;10.07;;;2.08;;
72951;SDS011;61102;51.956;5.878;2022-10-13T06:16:34;6.20;;;2.20;;
72951;SDS011;61102;51.956;5.878;2022-10-13T06:19:04;6.53;;;2.20;;
72951;SDS011;61102;51.956;5.878;2022-10-13T06:21:30;7.28;;;2.35;;
72951;SDS011;61102;51.956;5.878;2022-10-13T06:23:59;7.28;;;2.65;;
72951;SDS011;61102;51.956;5.878;2022-10-13T06:26:25;7.22;;;2.30;;
72951;SDS011;61102;51.956;5.878;2022-10-13T06:28:52;7.53;;;2.25;;
72951;SDS011;61102;51.956;5.878;2022-10-13T06:31:23;7.65;;;2.20;;
72951;SDS011;61102;51.956;5.878;2022-10-13T06:36:15;7.35;;;2.17;;
72951;SDS011;61102;51.956;5.878;2022-10-13T06:38:41;6.93;;;2.35;;
72951;SDS011;61102;51.956;5.878;2022-10-13T06:41:07;6.07;;;1.85;;
72951;SDS011;61102;51.956;5.878;2022-10-13T06:43:35;6.07;;;1.70;;
72951;SDS011;61102;51.956;5.878;2022-10-13T06:46:06;6.50;;;2.00;;
72951;SDS011;61102;51.956;5.878;2022-10-13T06:48:33;6.38;;;2.10;;
72951;SDS011;61102;51.956;5.878;2022-10-13T06:51:00;5.70;;;1.80;;
72951;SDS011;61102;51.956;5.878;2022-10-13T06:53:30;6.88;;;2.10;;
72951;SDS011;61102;51.956;5.878;2022-10-13T06:56:01;6.50;;;2.10;;
72951;SDS011;61102;51.956;5.878;2022-10-13T06:58:31;8.70;;;2.38;;
72951;SDS011;61102;51.956;5.878;2022-10-13T07:00:58;6.15;;;1.83;;
72951;SDS011;61102;51.956;5.878;2022-10-13T07:03:26;6.82;;;2.28;;
72951;SDS011;61102;51.956;5.878;2022-10-13T07:05:53;7.38;;;2.10;;
72951;SDS011;61102;51.956;5.878;2022-10-13T07:08:24;6.85;;;2.00;;
72951;SDS011;61102;51.956;5.878;2022-10-13T07:10:50;7.80;;;2.50;;
72951;SDS011;61102;51.956;5.878;2022-10-13T07:13:17;8.55;;;2.50;;
72951;SDS011;61102;51.956;5.878;2022-10-13T07:15:43;8.90;;;2.92;;
72951;SDS011;61102;51.956;5.878;2022-10-13T07:18:09;7.03;;;2.33;;
72951;SDS011;61102;51.956;5.878;2022-10-13T07:20:35;7.93;;;2.70;;
72951;SDS011;61102;51.956;5.878;2022-10-13T07:23:02;6.45;;;2.00;;
72951;SDS011;61102;51.956;5.878;2022-10-13T07:25:30;7.68;;;2.70;;
72951;SDS011;61102;51.956;5.878;2022-10-13T07:27:57;9.23;;;2.25;;
72951;SDS011;61102;51.956;5.878;2022-10-13T07:32:51;6.97;;;2.08;;
72951;SDS011;61102;51.956;5.878;2022-10-13T07:37:46;6.28;;;1.92;;
72951;SDS011;61102;51.956;5.878;2022-10-13T07:40:12;6.13;;;2.15;;
72951;SDS011;61102;51.956;5.878;2022-10-13T07:42:38;6.97;;;2.20;;
72951;SDS011;61102;51.956;5.878;2022-10-13T07:45:05;6.97;;;2.17;;
72951;SDS011;61102;51.956;5.878;2022-10-13T07:47:31;9.30;;;2.33;;
72951;SDS011;61102;51.956;5.878;2022-10-13T07:49:58;7.82;;;2.35;;
72951;SDS011;61102;51.956;5.878;2022-10-13T07:52:24;7.30;;;2.15;;
72951;SDS011;61102;51.956;5.878;2022-10-13T07:54:50;7.55;;;2.83;;
72951;SDS011;61102;51.956;5.878;2022-10-13T07:57:16;7.93;;;2.28;;
72951;SDS011;61102;51.956;5.878;2022-10-13T07:59:43;6.22;;;2.00;;
72951;SDS011;61102;51.956;5.878;2022-10-13T08:02:12;8.48;;;2.83;;
72951;SDS011;61102;51.956;5.878;2022-10-13T08:04:38;7.18;;;1.95;;
72951;SDS011;61102;51.956;5.878;2022-10-13T08:07:04;7.88;;;2.58;;
72951;SDS011;61102;51.956;5.878;2022-10-13T08:09:32;10.20;;;3.03;;
72951;SDS011;61102;51.956;5.878;2022-10-13T08:11:58;7.97;;;2.50;;
72951;SDS011;61102;51.956;5.878;2022-10-13T08:14:25;9.43;;;3.80;;
72951;SDS011;61102;51.956;5.878;2022-10-13T08:16:51;10.48;;;3.22;;
72951;SDS011;61102;51.956;5.878;2022-10-13T08:19:18;8.23;;;2.80;;
72951;SDS011;61102;51.956;5.878;2022-10-13T08:21:47;7.70;;;2.80;;
72951;SDS011;61102;51.956;5.878;2022-10-13T08:24:14;10.30;;;2.80;;
72951;SDS011;61102;51.956;5.878;2022-10-13T08:26:42;10.15;;;3.20;;
72951;SDS011;61102;51.956;5.878;2022-10-13T08:29:10;6.55;;;2.22;;
72951;SDS011;61102;51.956;5.878;2022-10-13T08:31:39;7.80;;;2.80;;
72951;SDS011;61102;51.956;5.878;2022-10-13T08:34:05;7.45;;;2.60;;
72951;SDS011;61102;51.956;5.878;2022-10-13T08:36:32;8.00;;;3.03;;
72951;SDS011;61102;51.956;5.878;2022-10-13T08:38:58;9.98;;;3.33;;
72951;SDS011;61102;51.956;5.878;2022-10-13T08:41:46;8.43;;;3.30;;
72951;SDS011;61102;51.956;5.878;2022-10-13T08:49:28;8.82;;;2.85;;
72951;SDS011;61102;51.956;5.878;2022-10-13T08:51:55;7.10;;;2.47;;
72951;SDS011;61102;51.956;5.878;2022-10-13T08:54:23;9.07;;;2.80;;
72951;SDS011;61102;51.956;5.878;2022-10-13T08:56:51;9.00;;;3.63;;
72951;SDS011;61102;51.956;5.878;2022-10-13T08:59:17;9.32;;;3.22;;
72951;SDS011;61102;51.956;5.878;2022-10-13T09:01:46;8.48;;;3.03;;
72951;SDS011;61102;51.956;5.878;2022-10-13T09:04:37;8.02;;;2.53;;
72951;SDS011;61102;51.956;5.878;2022-10-13T09:09:51;7.13;;;2.42;;
72951;SDS011;61102;51.956;5.878;2022-10-13T09:12:19;7.60;;;2.80;;
72951;SDS011;61102;51.956;5.878;2022-10-13T09:14:56;8.60;;;2.80;;
72951;SDS011;61102;51.956;5.878;2022-10-13T09:17:34;7.68;;;2.55;;
72951;SDS011;61102;51.956;5.878;2022-10-13T09:20:04;8.32;;;3.10;;
72951;SDS011;61102;51.956;5.878;2022-10-13T09:22:43;12.20;;;3.30;;
72951;SDS011;61102;51.956;5.878;2022-10-13T09:27:41;9.07;;;3.10;;
72951;SDS011;61102;51.956;5.878;2022-10-13T09:35:40;8.23;;;3.10;;
72951;SDS011;61102;51.956;5.878;2022-10-13T09:38:19;7.93;;;2.50;;
72951;SDS011;61102;51.956;5.878;2022-10-13T09:43:35;7.45;;;3.03;;
72951;SDS011;61102;51.956;5.878;2022-10-13T09:46:29;8.32;;;2.75;;
72951;SDS011;61102;51.956;5.878;2022-10-13T09:51:58;7.68;;;2.60;;
72951;SDS011;61102;51.956;5.878;2022-10-13T09:54:52;8.02;;;3.22;;
72951;SDS011;61102;51.956;5.878;2022-10-13T10:00:23;8.30;;;2.22;;
72951;SDS011;61102;51.956;5.878;2022-10-13T10:08:38;9.80;;;3.03;;
72951;SDS011;61102;51.956;5.878;2022-10-13T10:11:38;10.65;;;3.80;;
72951;SDS011;61102;51.956;5.878;2022-10-13T10:14:20;7.75;;;3.10;;
72951;SDS011;61102;51.956;5.878;2022-10-13T10:17:00;9.73;;;3.60;;
72951;SDS011;61102;51.956;5.878;2022-10-13T10:19:45;8.18;;;3.05;;
72951;SDS011;61102;51.956;5.878;2022-10-13T10:22:21;7.63;;;2.80;;
72951;SDS011;61102;51.956;5.878;2022-10-13T10:24:52;7.97;;;2.60;;
72951;SDS011;61102;51.956;5.878;2022-10-13T10:27:37;9.18;;;2.80;;
72951;SDS011;61102;51.956;5.878;2022-10-13T10:30:17;7.78;;;2.45;;
72951;SDS011;61102;51.956;5.878;2022-10-13T10:35:54;8.13;;;2.50;;
72951;SDS011;61102;51.956;5.878;2022-10-13T10:41:16;5.68;;;1.85;;
72951;SDS011;61102;51.956;5.878;2022-10-13T10:46:34;6.95;;;2.20;;
72951;SDS011;61102;51.956;5.878;2022-10-13T10:52:07;7.60;;;2.42;;
72951;SDS011;61102;51.956;5.878;2022-10-13T10:54:54;6.45;;;2.13;;
72951;SDS011;61102;51.956;5.878;2022-10-13T11:00:13;7.32;;;2.13;;
72951;SDS011;61102;51.956;5.878;2022-10-13T11:16:34;8.43;;;2.50;;
72951;SDS011;61102;51.956;5.878;2022-10-13T11:19:31;8.80;;;3.47;;
72951;SDS011;61102;51.956;5.878;2022-10-13T11:57:21;7.88;;;2.25;;
72951;SDS011;61102;51.956;5.878;2022-10-13T11:59:52;7.25;;;2.72;;
72951;SDS011;61102;51.956;5.878;2022-10-13T12:02:25;7.95;;;3.00;;
72951;SDS011;61102;51.956;5.878;2022-10-13T12:04:59;9.77;;;3.42;;
72951;SDS011;61102;51.956;5.878;2022-10-13T12:07:31;7.55;;;3.00;;
72951;SDS011;61102;51.956;5.878;2022-10-13T12:10:00;8.85;;;2.80;;
72951;SDS011;61102;51.956;5.878;2022-10-13T12:12:29;9.57;;;2.92;;
72951;SDS011;61102;51.956;5.878;2022-10-13T12:14:56;6.75;;;2.30;;
72951;SDS011;61102;51.956;5.878;2022-10-13T12:17:31;7.25;;;2.50;;
72951;SDS011;61102;51.956;5.878;2022-10-13T12:20:18;8.75;;;2.88;;
72951;SDS011;61102;51.956;5.878;2022-10-13T12:22:47;7.72;;;2.28;;
72951;SDS011;61102;51.956;5.878;2022-10-13T12:25:14;8.63;;;2.70;;
72951;SDS011;61102;51.956;5.878;2022-10-13T12:27:49;8.80;;;2.35;;
72951;SDS011;61102;51.956;5.878;2022-10-13T12:30:25;7.00;;;2.45;;
72951;SDS011;61102;51.956;5.878;2022-10-13T12:32:56;7.75;;;2.50;;
72951;SDS011;61102;51.956;5.878;2022-10-13T12:37:53;8.45;;;2.72;;
72951;SDS011;61102;51.956;5.878;2022-10-13T12:40:20;7.40;;;2.63;;
72951;SDS011;61102;51.956;5.878;2022-10-13T12:42:47;8.27;;;3.30;;
72951;SDS011;61102;51.956;5.878;2022-10-13T12:45:15;7.60;;;2.85;;
72951;SDS011;61102;51.956;5.878;2022-10-13T12:55:30;8.48;;;2.70;;
72951;SDS011;61102;51.956;5.878;2022-10-13T12:57:56;7.90;;;2.60;;
72951;SDS011;61102;51.956;5.878;2022-10-13T13:00:26;6.35;;;2.38;;
72951;SDS011;61102;51.956;5.878;2022-10-13T13:02:55;6.47;;;2.30;;
72951;SDS011;61102;51.956;5.878;2022-10-13T13:05:31;5.95;;;2.15;;
72951;SDS011;61102;51.956;5.878;2022-10-13T13:08:03;7.65;;;2.47;;
72951;SDS011;61102;51.956;5.878;2022-10-13T13:10:57;6.70;;;2.15;;
72951;SDS011;61102;51.956;5.878;2022-10-13T13:13:25;5.68;;;2.08;;
72951;SDS011;61102;51.956;5.878;2022-10-13T13:15:52;8.00;;;2.15;;
72951;SDS011;61102;51.956;5.878;2022-10-13T13:18:37;5.85;;;1.88;;
72951;SDS011;61102;51.956;5.878;2022-10-13T13:21:16;5.97;;;2.00;;
72951;SDS011;61102;51.956;5.878;2022-10-13T13:23:47;6.03;;;2.20;;
72951;SDS011;61102;51.956;5.878;2022-10-13T13:26:18;8.05;;;2.22;;
72951;SDS011;61102;51.956;5.878;2022-10-13T13:28:52;6.55;;;2.05;;
72951;SDS011;61102;51.956;5.878;2022-10-13T13:31:20;6.47;;;2.38;;
72951;SDS011;61102;51.956;5.878;2022-10-13T13:33:51;8.40;;;2.75;;
72951;SDS011;61102;51.956;5.878;2022-10-13T13:36:18;8.82;;;2.50;;
72951;SDS011;61102;51.956;5.878;2022-10-13T13:38:50;7.97;;;3.28;;
72951;SDS011;61102;51.956;5.878;2022-10-13T13:41:19;7.97;;;2.63;;
72951;SDS011;61102;51.956;5.878;2022-10-13T13:43:46;7.38;;;2.65;;
72951;SDS011;61102;51.956;5.878;2022-10-13T13:46:23;7.07;;;2.33;;
72951;SDS011;61102;51.956;5.878;2022-10-13T13:48:51;7.05;;;2.28;;
72951;SDS011;61102;51.956;5.878;2022-10-13T13:51:18;6.97;;;2.00;;
72951;SDS011;61102;51.956;5.878;2022-10-13T13:53:44;6.68;;;2.10;;
72951;SDS011;61102;51.956;5.878;2022-10-13T13:56:18;9.07;;;2.63;;
72951;SDS011;61102;51.956;5.878;2022-10-13T13:58:45;7.60;;;2.25;;
72951;SDS011;61102;51.956;5.878;2022-10-13T14:01:12;7.55;;;2.83;;
72951;SDS011;61102;51.956;5.878;2022-10-13T14:03:39;7.20;;;2.38;;
72951;SDS011;61102;51.956;5.878;2022-10-13T14:06:07;6.97;;;2.60;;
72951;SDS011;61102;51.956;5.878;2022-10-13T14:08:34;6.97;;;2.53;;
72951;SDS011;61102;51.956;5.878;2022-10-13T14:11:06;8.52;;;2.50;;
72951;SDS011;61102;51.956;5.878;2022-10-13T14:13:36;6.28;;;2.00;;
72951;SDS011;61102;51.956;5.878;2022-10-13T14:16:03;6.30;;;2.20;;
72951;SDS011;61102;51.956;5.878;2022-10-13T14:18:30;6.50;;;2.50;;
72951;SDS011;61102;51.956;5.878;2022-10-13T14:20:56;7.40;;;2.47;;
72951;SDS011;61102;51.956;5.878;2022-10-13T14:23:22;6.55;;;1.95;;
72951;SDS011;61102;51.956;5.878;2022-10-13T14:25:49;6.88;;;2.13;;
72951;SDS011;61102;51.956;5.878;2022-10-13T14:28:15;8.00;;;2.63;;
72951;SDS011;61102;51.956;5.878;2022-10-13T14:30:41;6.97;;;2.42;;
72951;SDS011;61102;51.956;5.878;2022-10-13T14:33:07;8.50;;;3.03;;
72951;SDS011;61102;51.956;5.878;2022-10-13T14:35:34;6.68;;;2.78;;
72951;SDS011;61102;51.956;5.878;2022-10-13T14:38:03;7.97;;;2.55;;
72951;SDS011;61102;51.956;5.878;2022-10-13T14:40:29;6.78;;;2.45;;
72951;SDS011;61102;51.956;5.878;2022-10-13T14:42:55;6.28;;;2.38;;
72951;SDS011;61102;51.956;5.878;2022-10-13T14:45:21;7.95;;;2.80;;
72951;SDS011;61102;51.956;5.878;2022-10-13T14:47:48;7.22;;;2.47;;
72951;SDS011;61102;51.956;5.878;2022-10-13T14:50:17;6.75;;;2.30;;
72951;SDS011;61102;51.956;5.878;2022-10-13T14:52:43;5.10;;;1.95;;
72951;SDS011;61102;51.956;5.878;2022-10-13T14:55:09;6.25;;;2.25;;
72951;SDS011;61102;51.956;5.878;2022-10-13T14:57:37;6.85;;;2.40;;
72951;SDS011;61102;51.956;5.878;2022-10-13T15:00:03;9.23;;;2.70;;
72951;SDS011;61102;51.956;5.878;2022-10-13T15:02:30;5.80;;;2.28;;
72951;SDS011;61102;51.956;5.878;2022-10-13T15:04:56;8.15;;;2.80;;
72951;SDS011;61102;51.956;5.878;2022-10-13T15:07:22;7.25;;;3.03;;
72951;SDS011;61102;51.956;5.878;2022-10-13T15:09:49;7.25;;;2.55;;
72951;SDS011;61102;51.956;5.878;2022-10-13T15:12:15;8.00;;;3.10;;
72951;SDS011;61102;51.956;5.878;2022-10-13T15:14:41;8.30;;;2.40;;
72951;SDS011;61102;51.956;5.878;2022-10-13T15:17:11;8.00;;;2.33;;
72951;SDS011;61102;51.956;5.878;2022-10-13T15:19:37;8.20;;;2.85;;
72951;SDS011;61102;51.956;5.878;2022-10-13T15:22:04;8.23;;;2.72;;
72951;SDS011;61102;51.956;5.878;2022-10-13T15:24:31;6.35;;;2.53;;
72951;SDS011;61102;51.956;5.878;2022-10-13T15:27:00;8.52;;;3.00;;
72951;SDS011;61102;51.956;5.878;2022-10-13T15:29:29;8.38;;;3.17;;
72951;SDS011;61102;51.956;5.878;2022-10-13T15:32:05;7.07;;;2.63;;
72951;SDS011;61102;51.956;5.878;2022-10-13T15:34:37;7.47;;;2.50;;
72951;SDS011;61102;51.956;5.878;2022-10-13T15:37:05;9.52;;;3.58;;
72951;SDS011;61102;51.956;5.878;2022-10-13T15:39:31;8.15;;;3.22;;
72951;SDS011;61102;51.956;5.878;2022-10-13T15:41:57;8.65;;;3.05;;
72951;SDS011;61102;51.956;5.878;2022-10-13T15:44:23;9.00;;;3.30;;
72951;SDS011;61102;51.956;5.878;2022-10-13T15:50:02;7.80;;;3.08;;
72951;SDS011;61102;51.956;5.878;2022-10-13T15:52:31;7.78;;;2.50;;
72951;SDS011;61102;51.956;5.878;2022-10-13T15:55:52;7.75;;;2.60;;
72951;SDS011;61102;51.956;5.878;2022-10-13T15:58:18;7.78;;;2.92;;
72951;SDS011;61102;51.956;5.878;2022-10-13T16:00:44;5.80;;;2.22;;
72951;SDS011;61102;51.956;5.878;2022-10-13T16:03:14;6.40;;;2.13;;
72951;SDS011;61102;51.956;5.878;2022-10-13T16:05:43;7.93;;;2.97;;
72951;SDS011;61102;51.956;5.878;2022-10-13T16:08:10;7.10;;;3.00;;
72951;SDS011;61102;51.956;5.878;2022-10-13T16:13:05;6.78;;;2.45;;
72951;SDS011;61102;51.956;5.878;2022-10-13T16:15:32;9.25;;;2.80;;
72951;SDS011;61102;51.956;5.878;2022-10-13T16:17:58;7.57;;;2.95;;
72951;SDS011;61102;51.956;5.878;2022-10-13T16:20:24;6.88;;;2.70;;
72951;SDS011;61102;51.956;5.878;2022-10-13T16:22:52;7.53;;;2.90;;
72951;SDS011;61102;51.956;5.878;2022-10-13T16:27:44;7.45;;;2.70;;
72951;SDS011;61102;51.956;5.878;2022-10-13T16:30:11;6.63;;;2.60;;
72951;SDS011;61102;51.956;5.878;2022-10-13T16:32:37;6.72;;;2.78;;
72951;SDS011;61102;51.956;5.878;2022-10-13T16:35:05;7.03;;;2.72;;
72951;SDS011;61102;51.956;5.878;2022-10-13T16:42:24;7.32;;;2.33;;
72951;SDS011;61102;51.956;5.878;2022-10-13T16:44:50;6.40;;;2.53;;
72951;SDS011;61102;51.956;5.878;2022-10-13T16:47:16;7.30;;;2.20;;
72951;SDS011;61102;51.956;5.878;2022-10-13T16:49:42;7.65;;;2.88;;
72951;SDS011;61102;51.956;5.878;2022-10-13T16:52:09;9.15;;;3.45;;
72951;SDS011;61102;51.956;5.878;2022-10-13T16:54:35;8.25;;;2.90;;
72951;SDS011;61102;51.956;5.878;2022-10-13T16:57:01;6.80;;;2.85;;
72951;SDS011;61102;51.956;5.878;2022-10-13T16:59:27;6.65;;;2.95;;
72951;SDS011;61102;51.956;5.878;2022-10-13T17:01:54;8.18;;;3.30;;
72951;SDS011;61102;51.956;5.878;2022-10-13T17:04:22;8.20;;;3.38;;
72951;SDS011;61102;51.956;5.878;2022-10-13T17:06:48;7.68;;;3.20;;
72951;SDS011;61102;51.956;5.878;2022-10-13T17:09:15;7.82;;;3.03;;
72951;SDS011;61102;51.956;5.878;2022-10-13T17:11:42;7.10;;;3.00;;
72951;SDS011;61102;51.956;5.878;2022-10-13T17:14:09;6.93;;;2.90;;
72951;SDS011;61102;51.956;5.878;2022-10-13T17:16:35;8.00;;;3.03;;
72951;SDS011;61102;51.956;5.878;2022-10-13T17:19:02;8.90;;;3.15;;
72951;SDS011;61102;51.956;5.878;2022-10-13T17:21:32;7.32;;;3.00;;
72951;SDS011;61102;51.956;5.878;2022-10-13T17:23:58;8.35;;;3.90;;
72951;SDS011;61102;51.956;5.878;2022-10-13T17:26:24;8.82;;;3.58;;
72951;SDS011;61102;51.956;5.878;2022-10-13T17:28:51;7.68;;;3.70;;
72951;SDS011;61102;51.956;5.878;2022-10-13T17:31:19;9.30;;;3.60;;